sensor_id;sensor_type;location;lat;lon;timestamp;P1;durP1;ratioP1;P2;durP2;ratioP2
64710;SDS011;51139;45.626;6.850;2023-04-24T00:01:40;0.65;;;0.40;;
64710;SDS011;51139;45.626;6.850;2023-04-24T00:04:07;0.47;;;0.20;;
64710;SDS011;51139;45.626;6.850;2023-04-24T00:06:36;0.50;;;0.40;;
64710;SDS011;51139;45.626;6.850;2023-04-24T00:09:07;1.60;;;0.50;;
64710;SDS011;51139;45.626;6.850;2023-04-24T00:11:35;0.82;;;0.32;;
64710;SDS011;51139;45.626;6.850;2023-04-24T00:14:00;1.55;;;0.80;;
64710;SDS011;51139;45.626;6.850;2023-04-24T00:16:26;4.63;;;1.05;;
64710;SDS011;51139;45.626;6.850;2023-04-24T00:18:51;0.68;;;0.40;;
64710;SDS011;51139;45.626;6.850;2023-04-24T00:21:21;1.60;;;0.70;;
64710;SDS011;51139;45.626;6.850;2023-04-24T00:23:46;1.15;;;0.60;;
64710;SDS011;51139;45.626;6.850;2023-04-24T00:26:12;2.47;;;1.00;;
64710;SDS011;51139;45.626;6.850;2023-04-24T00:28:38;2.75;;;0.90;;
64710;SDS011;51139;45.626;6.850;2023-04-24T00:31:03;2.10;;;0.80;;
64710;SDS011;51139;45.626;6.850;2023-04-24T00:33:29;2.63;;;0.88;;
64710;SDS011;51139;45.626;6.850;2023-04-24T00:35:54;2.65;;;0.98;;
64710;SDS011;51139;45.626;6.850;2023-04-24T00:38:20;0.32;;;0.30;;
64710;SDS011;51139;45.626;6.850;2023-04-24T00:40:47;0.28;;;0.28;;
64710;SDS011;51139;45.626;6.850;2023-04-24T00:43:12;0.50;;;0.30;;
64710;SDS011;51139;45.626;6.850;2023-04-24T00:45:38;0.85;;;0.60;;
64710;SDS011;51139;45.626;6.850;2023-04-24T00:48:03;1.45;;;0.52;;
64710;SDS011;51139;45.626;6.850;2023-04-24T00:50:29;0.95;;;0.65;;
64710;SDS011;51139;45.626;6.850;2023-04-24T00:52:55;0.60;;;0.47;;
64710;SDS011;51139;45.626;6.850;2023-04-24T00:55:21;3.85;;;1.65;;
64710;SDS011;51139;45.626;6.850;2023-04-24T00:57:46;8.02;;;3.55;;
64710;SDS011;51139;45.626;6.850;2023-04-24T01:00:13;2.13;;;1.50;;
64710;SDS011;51139;45.626;6.850;2023-04-24T01:02:39;8.77;;;2.85;;
64710;SDS011;51139;45.626;6.850;2023-04-24T01:05:08;41.50;;;3.70;;
64710;SDS011;51139;45.626;6.850;2023-04-24T01:07:35;53.83;;;3.05;;
64710;SDS011;51139;45.626;6.850;2023-04-24T01:10:00;31.60;;;2.60;;
64710;SDS011;51139;45.626;6.850;2023-04-24T01:12:26;13.43;;;1.50;;
64710;SDS011;51139;45.626;6.850;2023-04-24T01:14:52;57.90;;;3.63;;
64710;SDS011;51139;45.626;6.850;2023-04-24T01:17:17;26.25;;;1.63;;
64710;SDS011;51139;45.626;6.850;2023-04-24T01:19:42;3.53;;;0.80;;
64710;SDS011;51139;45.626;6.850;2023-04-24T01:22:12;0.10;;;0.10;;
64710;SDS011;51139;45.626;6.850;2023-04-24T01:24:42;0.00;;;0.00;;
64710;SDS011;51139;45.626;6.850;2023-04-24T01:27:08;0.10;;;0.10;;
64710;SDS011;51139;45.626;6.850;2023-04-24T01:29:35;0.20;;;0.05;;
64710;SDS011;51139;45.626;6.850;2023-04-24T01:32:01;2.53;;;0.10;;
64710;SDS011;51139;45.626;6.850;2023-04-24T01:34:27;2.88;;;0.82;;
64710;SDS011;51139;45.626;6.850;2023-04-24T01:36:53;7.22;;;0.63;;
64710;SDS011;51139;45.626;6.850;2023-04-24T01:39:19;12.95;;;0.80;;
64710;SDS011;51139;45.626;6.850;2023-04-24T01:41:45;11.48;;;0.68;;
64710;SDS011;51139;45.626;6.850;2023-04-24T01:44:11;11.38;;;0.77;;
64710;SDS011;51139;45.626;6.850;2023-04-24T01:46:37;16.88;;;1.13;;
64710;SDS011;51139;45.626;6.850;2023-04-24T01:49:03;94.20;;;4.45;;
64710;SDS011;51139;45.626;6.850;2023-04-24T01:51:28;8.45;;;0.60;;
64710;SDS011;51139;45.626;6.850;2023-04-24T01:53:55;1.20;;;0.20;;
64710;SDS011;51139;45.626;6.850;2023-04-24T01:56:21;0.73;;;0.30;;
64710;SDS011;51139;45.626;6.850;2023-04-24T01:58:47;1.20;;;0.20;;
64710;SDS011;51139;45.626;6.850;2023-04-24T02:01:19;0.15;;;0.10;;
64710;SDS011;51139;45.626;6.850;2023-04-24T02:03:45;0.50;;;0.20;;
64710;SDS011;51139;45.626;6.850;2023-04-24T02:06:10;0.73;;;0.30;;
64710;SDS011;51139;45.626;6.850;2023-04-24T02:08:36;0.30;;;0.10;;
64710;SDS011;51139;45.626;6.850;2023-04-24T02:11:01;0.10;;;0.10;;
64710;SDS011;51139;45.626;6.850;2023-04-24T02:13:27;0.10;;;0.10;;
64710;SDS011;51139;45.626;6.850;2023-04-24T02:15:53;0.68;;;0.20;;
64710;SDS011;51139;45.626;6.850;2023-04-24T02:18:18;2.08;;;0.20;;
64710;SDS011;51139;45.626;6.850;2023-04-24T02:20:44;1.02;;;0.20;;
64710;SDS011;51139;45.626;6.850;2023-04-24T02:23:09;0.30;;;0.13;;
64710;SDS011;51139;45.626;6.850;2023-04-24T02:25:34;0.32;;;0.22;;
64710;SDS011;51139;45.626;6.850;2023-04-24T02:28:00;1.02;;;0.40;;
64710;SDS011;51139;45.626;6.850;2023-04-24T02:30:25;0.50;;;0.30;;
64710;SDS011;51139;45.626;6.850;2023-04-24T02:32:51;107.80;;;6.10;;
64710;SDS011;51139;45.626;6.850;2023-04-24T02:35:16;75.13;;;4.07;;
64710;SDS011;51139;45.626;6.850;2023-04-24T02:37:42;108.32;;;6.80;;
64710;SDS011;51139;45.626;6.850;2023-04-24T02:40:07;120.93;;;6.28;;
64710;SDS011;51139;45.626;6.850;2023-04-24T02:42:33;216.93;;;9.48;;
64710;SDS011;51139;45.626;6.850;2023-04-24T02:44:59;231.63;;;12.35;;
64710;SDS011;51139;45.626;6.850;2023-04-24T02:47:24;216.77;;;12.90;;
64710;SDS011;51139;45.626;6.850;2023-04-24T02:49:50;235.30;;;12.35;;
64710;SDS011;51139;45.626;6.850;2023-04-24T02:52:15;333.30;;;16.00;;
64710;SDS011;51139;45.626;6.850;2023-04-24T02:54:41;110.03;;;6.55;;
64710;SDS011;51139;45.626;6.850;2023-04-24T02:57:07;203.95;;;10.88;;
64710;SDS011;51139;45.626;6.850;2023-04-24T02:59:32;85.03;;;6.20;;
64710;SDS011;51139;45.626;6.850;2023-04-24T03:01:58;152.88;;;8.77;;
64710;SDS011;51139;45.626;6.850;2023-04-24T03:04:23;187.70;;;11.07;;
64710;SDS011;51139;45.626;6.850;2023-04-24T03:06:49;49.63;;;3.45;;
64710;SDS011;51139;45.626;6.850;2023-04-24T03:09:16;46.85;;;2.85;;
64710;SDS011;51139;45.626;6.850;2023-04-24T03:11:42;10.63;;;0.85;;
64710;SDS011;51139;45.626;6.850;2023-04-24T03:14:07;12.18;;;0.75;;
64710;SDS011;51139;45.626;6.850;2023-04-24T03:16:32;18.80;;;0.90;;
64710;SDS011;51139;45.626;6.850;2023-04-24T03:18:58;3.00;;;0.30;;
64710;SDS011;51139;45.626;6.850;2023-04-24T03:21:23;7.70;;;0.60;;
64710;SDS011;51139;45.626;6.850;2023-04-24T03:23:48;9.82;;;0.65;;
64710;SDS011;51139;45.626;6.850;2023-04-24T03:26:14;23.95;;;1.65;;
64710;SDS011;51139;45.626;6.850;2023-04-24T03:28:39;19.45;;;1.45;;
64710;SDS011;51139;45.626;6.850;2023-04-24T07:31:03;1.13;;;0.70;;
64710;SDS011;51139;45.626;6.850;2023-04-24T07:33:28;0.88;;;0.70;;
64710;SDS011;51139;45.626;6.850;2023-04-24T07:35:54;4.20;;;0.70;;
64710;SDS011;51139;45.626;6.850;2023-04-24T07:38:19;2.28;;;0.70;;
64710;SDS011;51139;45.626;6.850;2023-04-24T07:40:47;12.30;;;1.35;;
64710;SDS011;51139;45.626;6.850;2023-04-24T07:43:13;0.60;;;0.50;;
64710;SDS011;51139;45.626;6.850;2023-04-24T07:45:38;0.90;;;0.63;;
64710;SDS011;51139;45.626;6.850;2023-04-24T07:48:04;0.75;;;0.47;;
64710;SDS011;51139;45.626;6.850;2023-04-24T07:50:30;1.05;;;0.50;;
64710;SDS011;51139;45.626;6.850;2023-04-24T07:52:56;0.65;;;0.60;;
64710;SDS011;51139;45.626;6.850;2023-04-24T07:55:21;0.50;;;0.47;;
64710;SDS011;51139;45.626;6.850;2023-04-24T07:57:46;0.40;;;0.40;;
64710;SDS011;51139;45.626;6.850;2023-04-24T08:00:12;1.13;;;0.70;;
64710;SDS011;51139;45.626;6.850;2023-04-24T08:02:38;2.03;;;1.25;;
64710;SDS011;51139;45.626;6.850;2023-04-24T08:05:04;1.30;;;0.82;;
64710;SDS011;51139;45.626;6.850;2023-04-24T08:07:29;33.00;;;2.72;;
64710;SDS011;51139;45.626;6.850;2023-04-24T08:09:56;81.47;;;5.15;;
64710;SDS011;51139;45.626;6.850;2023-04-24T08:12:22;30.85;;;2.83;;
64710;SDS011;51139;45.626;6.850;2023-04-24T08:14:47;101.95;;;6.13;;
64710;SDS011;51139;45.626;6.850;2023-04-24T08:17:14;80.90;;;4.90;;
64710;SDS011;51139;45.626;6.850;2023-04-24T08:19:41;11.48;;;1.17;;
64710;SDS011;51139;45.626;6.850;2023-04-24T08:22:13;21.58;;;1.58;;
64710;SDS011;51139;45.626;6.850;2023-04-24T08:24:41;59.22;;;3.63;;
64710;SDS011;51139;45.626;6.850;2023-04-24T08:27:07;37.67;;;2.63;;
64710;SDS011;51139;45.626;6.850;2023-04-24T08:29:33;12.60;;;1.40;;
64710;SDS011;51139;45.626;6.850;2023-04-24T08:32:00;1.13;;;0.50;;
64710;SDS011;51139;45.626;6.850;2023-04-24T08:34:25;1.45;;;0.50;;
64710;SDS011;51139;45.626;6.850;2023-04-24T08:36:50;0.60;;;0.60;;
64710;SDS011;51139;45.626;6.850;2023-04-24T08:39:16;0.40;;;0.40;;
64710;SDS011;51139;45.626;6.850;2023-04-24T08:41:43;0.45;;;0.40;;
64710;SDS011;51139;45.626;6.850;2023-04-24T08:44:09;0.52;;;0.45;;
64710;SDS011;51139;45.626;6.850;2023-04-24T08:46:35;1.23;;;0.60;;
64710;SDS011;51139;45.626;6.850;2023-04-24T08:49:01;1.85;;;0.70;;
64710;SDS011;51139;45.626;6.850;2023-04-24T08:51:27;6.70;;;0.93;;
64710;SDS011;51139;45.626;6.850;2023-04-24T08:53:55;1.33;;;0.90;;
64710;SDS011;51139;45.626;6.850;2023-04-24T08:56:22;0.65;;;0.65;;
64710;SDS011;51139;45.626;6.850;2023-04-24T08:58:49;0.30;;;0.20;;
64710;SDS011;51139;45.626;6.850;2023-04-24T09:01:16;0.45;;;0.20;;
64710;SDS011;51139;45.626;6.850;2023-04-24T09:03:43;0.43;;;0.43;;
64710;SDS011;51139;45.626;6.850;2023-04-24T09:06:10;7.78;;;4.80;;
64710;SDS011;51139;45.626;6.850;2023-04-24T09:08:36;0.80;;;0.52;;
64710;SDS011;51139;45.626;6.850;2023-04-24T09:11:03;2.38;;;2.00;;
64710;SDS011;51139;45.626;6.850;2023-04-24T09:13:30;0.93;;;0.47;;
64710;SDS011;51139;45.626;6.850;2023-04-24T09:15:56;1.67;;;0.90;;
64710;SDS011;51139;45.626;6.850;2023-04-24T09:18:22;10.43;;;0.95;;
64710;SDS011;51139;45.626;6.850;2023-04-24T09:21:07;0.90;;;0.80;;
64710;SDS011;51139;45.626;6.850;2023-04-24T09:23:33;37.38;;;2.78;;
64710;SDS011;51139;45.626;6.850;2023-04-24T09:26:00;6.95;;;1.00;;
64710;SDS011;51139;45.626;6.850;2023-04-24T09:28:30;2.33;;;0.70;;
64710;SDS011;51139;45.626;6.850;2023-04-24T09:31:11;0.70;;;0.68;;
64710;SDS011;51139;45.626;6.850;2023-04-24T09:33:39;2.97;;;0.60;;
64710;SDS011;51139;45.626;6.850;2023-04-24T09:36:04;1.63;;;1.05;;
64710;SDS011;51139;45.626;6.850;2023-04-24T09:38:37;1.75;;;0.70;;
64710;SDS011;51139;45.626;6.850;2023-04-24T09:41:07;1.75;;;1.00;;
64710;SDS011;51139;45.626;6.850;2023-04-24T09:43:33;1.15;;;0.73;;
64710;SDS011;51139;45.626;6.850;2023-04-24T09:46:04;0.32;;;0.32;;
64710;SDS011;51139;45.626;6.850;2023-04-24T09:48:34;0.25;;;0.25;;
64710;SDS011;51139;45.626;6.850;2023-04-24T09:51:01;0.20;;;0.20;;
64710;SDS011;51139;45.626;6.850;2023-04-24T09:53:28;0.20;;;0.20;;
64710;SDS011;51139;45.626;6.850;2023-04-24T09:55:54;0.38;;;0.30;;
64710;SDS011;51139;45.626;6.850;2023-04-24T09:58:26;0.63;;;0.60;;
64710;SDS011;51139;45.626;6.850;2023-04-24T10:00:53;1.48;;;1.10;;
64710;SDS011;51139;45.626;6.850;2023-04-24T10:03:20;1.13;;;0.70;;
64710;SDS011;51139;45.626;6.850;2023-04-24T10:05:46;0.73;;;0.60;;
64710;SDS011;51139;45.626;6.850;2023-04-24T10:08:12;0.77;;;0.47;;
64710;SDS011;51139;45.626;6.850;2023-04-24T10:10:39;2.10;;;0.80;;
64710;SDS011;51139;45.626;6.850;2023-04-24T10:13:06;1.08;;;0.85;;
64710;SDS011;51139;45.626;6.850;2023-04-24T10:15:34;1.63;;;1.50;;
64710;SDS011;51139;45.626;6.850;2023-04-24T10:18:00;3.20;;;2.90;;
64710;SDS011;51139;45.626;6.850;2023-04-24T10:20:26;2.63;;;1.52;;
64710;SDS011;51139;45.626;6.850;2023-04-24T10:22:57;1.23;;;1.00;;
64710;SDS011;51139;45.626;6.850;2023-04-24T10:25:24;0.95;;;0.95;;
64710;SDS011;51139;45.626;6.850;2023-04-24T10:27:52;0.88;;;0.88;;
64710;SDS011;51139;45.626;6.850;2023-04-24T10:30:18;0.82;;;0.73;;
64710;SDS011;51139;45.626;6.850;2023-04-24T10:32:45;1.77;;;1.00;;
64710;SDS011;51139;45.626;6.850;2023-04-24T10:35:14;0.60;;;0.60;;
64710;SDS011;51139;45.626;6.850;2023-04-24T10:37:42;1.30;;;0.80;;
64710;SDS011;51139;45.626;6.850;2023-04-24T10:40:17;0.40;;;0.40;;
64710;SDS011;51139;45.626;6.850;2023-04-24T10:42:46;1.30;;;0.90;;
64710;SDS011;51139;45.626;6.850;2023-04-24T10:45:19;1.52;;;1.27;;
64710;SDS011;51139;45.626;6.850;2023-04-24T10:47:53;0.77;;;0.70;;
64710;SDS011;51139;45.626;6.850;2023-04-24T10:50:27;1.97;;;0.40;;
64710;SDS011;51139;45.626;6.850;2023-04-24T10:53:05;1.67;;;0.95;;
64710;SDS011;51139;45.626;6.850;2023-04-24T10:55:49;0.50;;;0.50;;
64710;SDS011;51139;45.626;6.850;2023-04-24T11:01:03;0.77;;;0.55;;
64710;SDS011;51139;45.626;6.850;2023-04-24T11:03:33;3.30;;;1.08;;
64710;SDS011;51139;45.626;6.850;2023-04-24T11:08:29;2.85;;;0.60;;
64710;SDS011;51139;45.626;6.850;2023-04-24T11:11:17;0.93;;;0.70;;
64710;SDS011;51139;45.626;6.850;2023-04-24T11:16:21;0.60;;;0.60;;
64710;SDS011;51139;45.626;6.850;2023-04-24T11:18:51;1.35;;;0.40;;
64710;SDS011;51139;45.626;6.850;2023-04-24T11:21:24;0.50;;;0.50;;
64710;SDS011;51139;45.626;6.850;2023-04-24T11:23:56;1.42;;;0.52;;
64710;SDS011;51139;45.626;6.850;2023-04-24T11:26:22;0.80;;;0.70;;
64710;SDS011;51139;45.626;6.850;2023-04-24T11:28:49;0.35;;;0.35;;
64710;SDS011;51139;45.626;6.850;2023-04-24T11:31:38;1.15;;;0.47;;
64710;SDS011;51139;45.626;6.850;2023-04-24T11:34:14;1.20;;;0.60;;
64710;SDS011;51139;45.626;6.850;2023-04-24T11:36:40;3.15;;;1.60;;
64710;SDS011;51139;45.626;6.850;2023-04-24T11:39:09;5.03;;;2.80;;
64710;SDS011;51139;45.626;6.850;2023-04-24T11:41:35;4.20;;;2.35;;
64710;SDS011;51139;45.626;6.850;2023-04-24T11:44:00;1.17;;;0.70;;
64710;SDS011;51139;45.626;6.850;2023-04-24T11:46:30;2.83;;;1.88;;
64710;SDS011;51139;45.626;6.850;2023-04-24T11:48:56;4.32;;;3.38;;
64710;SDS011;51139;45.626;6.850;2023-04-24T11:51:23;2.35;;;1.83;;
64710;SDS011;51139;45.626;6.850;2023-04-24T11:53:54;0.80;;;0.70;;
64710;SDS011;51139;45.626;6.850;2023-04-24T11:56:21;0.80;;;0.52;;
64710;SDS011;51139;45.626;6.850;2023-04-24T11:58:47;0.80;;;0.80;;
64710;SDS011;51139;45.626;6.850;2023-04-24T12:01:13;2.00;;;0.80;;
64710;SDS011;51139;45.626;6.850;2023-04-24T12:03:38;1.55;;;0.90;;
64710;SDS011;51139;45.626;6.850;2023-04-24T12:06:07;1.73;;;1.10;;
64710;SDS011;51139;45.626;6.850;2023-04-24T12:08:35;0.73;;;0.50;;
64710;SDS011;51139;45.626;6.850;2023-04-24T12:11:01;0.80;;;0.65;;
64710;SDS011;51139;45.626;6.850;2023-04-24T12:13:27;2.13;;;0.70;;
64710;SDS011;51139;45.626;6.850;2023-04-24T12:15:53;1.65;;;0.70;;
64710;SDS011;51139;45.626;6.850;2023-04-24T12:18:18;1.52;;;0.80;;
64710;SDS011;51139;45.626;6.850;2023-04-24T12:20:47;0.85;;;0.50;;
64710;SDS011;51139;45.626;6.850;2023-04-24T12:23:13;0.80;;;0.43;;
64710;SDS011;51139;45.626;6.850;2023-04-24T12:25:38;2.13;;;1.33;;
64710;SDS011;51139;45.626;6.850;2023-04-24T12:30:30;1.55;;;1.10;;
64710;SDS011;51139;45.626;6.850;2023-04-24T12:33:00;1.38;;;1.00;;
64710;SDS011;51139;45.626;6.850;2023-04-24T12:35:27;0.98;;;0.55;;
64710;SDS011;51139;45.626;6.850;2023-04-24T12:37:54;0.80;;;0.80;;
64710;SDS011;51139;45.626;6.850;2023-04-24T12:40:20;0.93;;;0.80;;
64710;SDS011;51139;45.626;6.850;2023-04-24T12:42:48;1.25;;;0.90;;
64710;SDS011;51139;45.626;6.850;2023-04-24T12:45:15;1.55;;;0.90;;
64710;SDS011;51139;45.626;6.850;2023-04-24T12:47:42;0.80;;;0.70;;
64710;SDS011;51139;45.626;6.850;2023-04-24T12:50:09;1.33;;;0.70;;
64710;SDS011;51139;45.626;6.850;2023-04-24T12:52:36;0.63;;;0.52;;
64710;SDS011;51139;45.626;6.850;2023-04-24T12:55:02;0.65;;;0.50;;
64710;SDS011;51139;45.626;6.850;2023-04-24T12:57:29;3.75;;;2.30;;
64710;SDS011;51139;45.626;6.850;2023-04-24T12:59:56;1.25;;;0.70;;
64710;SDS011;51139;45.626;6.850;2023-04-24T13:02:23;1.23;;;0.60;;
64710;SDS011;51139;45.626;6.850;2023-04-24T13:04:50;0.80;;;0.43;;
64710;SDS011;51139;45.626;6.850;2023-04-24T13:07:16;1.27;;;0.70;;
64710;SDS011;51139;45.626;6.850;2023-04-24T13:09:42;1.90;;;0.77;;
64710;SDS011;51139;45.626;6.850;2023-04-24T13:12:08;1.40;;;0.40;;
64710;SDS011;51139;45.626;6.850;2023-04-24T13:14:35;0.70;;;0.50;;
64710;SDS011;51139;45.626;6.850;2023-04-24T13:17:01;0.65;;;0.50;;
64710;SDS011;51139;45.626;6.850;2023-04-24T13:19:27;2.08;;;0.80;;
64710;SDS011;51139;45.626;6.850;2023-04-24T13:21:53;1.42;;;0.60;;
64710;SDS011;51139;45.626;6.850;2023-04-24T13:24:20;0.55;;;0.50;;
64710;SDS011;51139;45.626;6.850;2023-04-24T13:26:49;1.15;;;0.50;;
64710;SDS011;51139;45.626;6.850;2023-04-24T13:29:15;1.80;;;0.80;;
64710;SDS011;51139;45.626;6.850;2023-04-24T13:31:40;3.10;;;2.17;;
64710;SDS011;51139;45.626;6.850;2023-04-24T13:34:06;3.63;;;1.45;;
64710;SDS011;51139;45.626;6.850;2023-04-24T13:36:32;3.35;;;1.38;;
64710;SDS011;51139;45.626;6.850;2023-04-24T13:38:57;1.42;;;0.80;;
64710;SDS011;51139;45.626;6.850;2023-04-24T13:41:23;5.95;;;0.90;;
64710;SDS011;51139;45.626;6.850;2023-04-24T13:43:48;2.70;;;1.25;;
64710;SDS011;51139;45.626;6.850;2023-04-24T13:46:14;3.28;;;2.05;;
64710;SDS011;51139;45.626;6.850;2023-04-24T13:48:39;1.70;;;0.82;;
64710;SDS011;51139;45.626;6.850;2023-04-24T13:51:05;1.33;;;0.98;;
64710;SDS011;51139;45.626;6.850;2023-04-24T13:53:31;0.50;;;0.50;;
64710;SDS011;51139;45.626;6.850;2023-04-24T13:55:57;1.20;;;0.52;;
64710;SDS011;51139;45.626;6.850;2023-04-24T13:58:23;1.65;;;1.13;;
64710;SDS011;51139;45.626;6.850;2023-04-24T14:00:48;2.20;;;0.80;;
64710;SDS011;51139;45.626;6.850;2023-04-24T14:03:13;1.48;;;0.70;;
64710;SDS011;51139;45.626;6.850;2023-04-24T14:05:39;1.40;;;0.93;;
64710;SDS011;51139;45.626;6.850;2023-04-24T14:08:04;2.38;;;1.00;;
64710;SDS011;51139;45.626;6.850;2023-04-24T14:10:30;1.98;;;1.10;;
64710;SDS011;51139;45.626;6.850;2023-04-24T14:12:56;1.63;;;0.70;;
64710;SDS011;51139;45.626;6.850;2023-04-24T14:15:21;3.55;;;1.33;;
64710;SDS011;51139;45.626;6.850;2023-04-24T14:17:47;4.13;;;1.45;;
64710;SDS011;51139;45.626;6.850;2023-04-24T14:20:14;3.10;;;1.20;;
64710;SDS011;51139;45.626;6.850;2023-04-24T14:22:40;3.70;;;1.42;;
64710;SDS011;51139;45.626;6.850;2023-04-24T14:25:06;1.60;;;0.93;;
64710;SDS011;51139;45.626;6.850;2023-04-24T14:27:31;3.22;;;1.23;;
64710;SDS011;51139;45.626;6.850;2023-04-24T14:29:57;1.55;;;0.95;;
64710;SDS011;51139;45.626;6.850;2023-04-24T14:32:22;3.15;;;1.33;;
64710;SDS011;51139;45.626;6.850;2023-04-24T14:34:48;0.98;;;0.70;;
64710;SDS011;51139;45.626;6.850;2023-04-24T14:37:15;2.08;;;1.20;;
64710;SDS011;51139;45.626;6.850;2023-04-24T14:39:40;1.35;;;0.70;;
64710;SDS011;51139;45.626;6.850;2023-04-24T14:42:05;4.72;;;0.88;;
64710;SDS011;51139;45.626;6.850;2023-04-24T14:44:31;2.03;;;0.80;;
64710;SDS011;51139;45.626;6.850;2023-04-24T14:46:57;2.92;;;1.05;;
64710;SDS011;51139;45.626;6.850;2023-04-24T14:49:25;1.63;;;0.60;;
64710;SDS011;51139;45.626;6.850;2023-04-24T14:51:51;1.65;;;0.70;;
64710;SDS011;51139;45.626;6.850;2023-04-24T14:54:16;1.50;;;0.90;;
64710;SDS011;51139;45.626;6.850;2023-04-24T14:56:41;2.08;;;0.80;;
64710;SDS011;51139;45.626;6.850;2023-04-24T14:59:09;1.38;;;0.70;;
64710;SDS011;51139;45.626;6.850;2023-04-24T15:01:35;1.30;;;0.63;;
64710;SDS011;51139;45.626;6.850;2023-04-24T15:04:00;1.23;;;0.80;;
64710;SDS011;51139;45.626;6.850;2023-04-24T15:06:26;0.88;;;0.70;;
64710;SDS011;51139;45.626;6.850;2023-04-24T15:08:51;2.90;;;0.70;;
64710;SDS011;51139;45.626;6.850;2023-04-24T15:11:17;1.02;;;0.45;;
64710;SDS011;51139;45.626;6.850;2023-04-24T15:13:42;1.23;;;0.70;;
64710;SDS011;51139;45.626;6.850;2023-04-24T15:16:10;2.33;;;0.93;;
64710;SDS011;51139;45.626;6.850;2023-04-24T15:18:36;1.15;;;0.90;;
64710;SDS011;51139;45.626;6.850;2023-04-24T15:21:01;1.52;;;0.80;;
64710;SDS011;51139;45.626;6.850;2023-04-24T15:23:27;1.17;;;0.63;;
64710;SDS011;51139;45.626;6.850;2023-04-24T15:25:52;0.68;;;0.60;;
64710;SDS011;51139;45.626;6.850;2023-04-24T15:28:17;1.52;;;0.70;;
64710;SDS011;51139;45.626;6.850;2023-04-24T15:30:43;1.48;;;0.68;;
64710;SDS011;51139;45.626;6.850;2023-04-24T15:33:08;1.08;;;0.60;;
64710;SDS011;51139;45.626;6.850;2023-04-24T15:35:34;2.25;;;0.70;;
64710;SDS011;51139;45.626;6.850;2023-04-24T15:38:00;1.60;;;0.60;;
64710;SDS011;51139;45.626;6.850;2023-04-24T15:40:26;2.58;;;0.70;;
64710;SDS011;51139;45.626;6.850;2023-04-24T15:42:51;0.85;;;0.60;;
64710;SDS011;51139;45.626;6.850;2023-04-24T15:45:17;1.92;;;0.73;;
64710;SDS011;51139;45.626;6.850;2023-04-24T15:47:44;2.08;;;0.80;;
64710;SDS011;51139;45.626;6.850;2023-04-24T15:50:10;1.65;;;0.82;;
64710;SDS011;51139;45.626;6.850;2023-04-24T15:52:36;1.40;;;0.68;;
64710;SDS011;51139;45.626;6.850;2023-04-24T15:55:02;2.10;;;0.77;;
64710;SDS011;51139;45.626;6.850;2023-04-24T15:57:28;1.35;;;0.60;;
64710;SDS011;51139;45.626;6.850;2023-04-24T15:59:55;1.75;;;0.77;;
64710;SDS011;51139;45.626;6.850;2023-04-24T16:02:20;1.20;;;0.73;;
64710;SDS011;51139;45.626;6.850;2023-04-24T16:04:47;1.20;;;0.80;;
64710;SDS011;51139;45.626;6.850;2023-04-24T16:07:14;4.82;;;2.05;;
64710;SDS011;51139;45.626;6.850;2023-04-24T16:09:42;2.42;;;1.38;;
64710;SDS011;51139;45.626;6.850;2023-04-24T16:12:08;4.28;;;2.70;;
64710;SDS011;51139;45.626;6.850;2023-04-24T16:14:35;3.45;;;2.05;;
64710;SDS011;51139;45.626;6.850;2023-04-24T16:17:01;1.75;;;1.20;;
64710;SDS011;51139;45.626;6.850;2023-04-24T16:19:27;1.10;;;0.77;;
64710;SDS011;51139;45.626;6.850;2023-04-24T16:21:52;1.10;;;0.80;;
64710;SDS011;51139;45.626;6.850;2023-04-24T16:24:22;1.88;;;0.90;;
64710;SDS011;51139;45.626;6.850;2023-04-24T16:26:48;1.50;;;0.90;;
64710;SDS011;51139;45.626;6.850;2023-04-24T16:29:14;1.83;;;0.93;;
64710;SDS011;51139;45.626;6.850;2023-04-24T16:31:40;1.83;;;0.90;;
64710;SDS011;51139;45.626;6.850;2023-04-24T16:34:06;2.42;;;0.70;;
64710;SDS011;51139;45.626;6.850;2023-04-24T16:36:31;3.97;;;1.48;;
64710;SDS011;51139;45.626;6.850;2023-04-24T16:38:58;1.50;;;0.95;;
64710;SDS011;51139;45.626;6.850;2023-04-24T16:41:25;2.05;;;1.08;;
64710;SDS011;51139;45.626;6.850;2023-04-24T16:43:51;5.35;;;1.75;;
64710;SDS011;51139;45.626;6.850;2023-04-24T16:46:17;2.88;;;1.70;;
64710;SDS011;51139;45.626;6.850;2023-04-24T16:48:43;4.05;;;2.13;;
64710;SDS011;51139;45.626;6.850;2023-04-24T16:51:08;2.28;;;1.45;;
64710;SDS011;51139;45.626;6.850;2023-04-24T16:53:33;2.72;;;1.40;;
64710;SDS011;51139;45.626;6.850;2023-04-24T16:55:59;3.78;;;2.20;;
64710;SDS011;51139;45.626;6.850;2023-04-24T16:58:24;3.60;;;1.70;;
64710;SDS011;51139;45.626;6.850;2023-04-24T17:00:50;3.25;;;1.67;;
64710;SDS011;51139;45.626;6.850;2023-04-24T17:03:15;4.88;;;1.30;;
64710;SDS011;51139;45.626;6.850;2023-04-24T17:05:41;1.95;;;1.20;;
64710;SDS011;51139;45.626;6.850;2023-04-24T17:08:06;3.42;;;1.13;;
64710;SDS011;51139;45.626;6.850;2023-04-24T17:10:31;4.07;;;1.10;;
64710;SDS011;51139;45.626;6.850;2023-04-24T17:12:57;2.97;;;1.02;;
64710;SDS011;51139;45.626;6.850;2023-04-24T17:15:23;1.75;;;0.90;;
64710;SDS011;51139;45.626;6.850;2023-04-24T17:17:50;1.73;;;0.80;;
64710;SDS011;51139;45.626;6.850;2023-04-24T17:20:15;1.77;;;0.80;;
64710;SDS011;51139;45.626;6.850;2023-04-24T17:22:40;1.15;;;0.75;;
64710;SDS011;51139;45.626;6.850;2023-04-24T17:25:06;1.38;;;1.00;;
64710;SDS011;51139;45.626;6.850;2023-04-24T17:27:31;2.17;;;1.10;;
64710;SDS011;51139;45.626;6.850;2023-04-24T17:29:57;1.88;;;0.90;;
64710;SDS011;51139;45.626;6.850;2023-04-24T17:32:23;3.30;;;0.90;;
64710;SDS011;51139;45.626;6.850;2023-04-24T17:34:48;2.05;;;0.73;;
64710;SDS011;51139;45.626;6.850;2023-04-24T17:37:14;2.10;;;0.80;;
64710;SDS011;51139;45.626;6.850;2023-04-24T17:39:40;1.95;;;0.60;;
64710;SDS011;51139;45.626;6.850;2023-04-24T17:42:05;1.58;;;0.60;;
64710;SDS011;51139;45.626;6.850;2023-04-24T17:44:31;0.82;;;0.70;;
64710;SDS011;51139;45.626;6.850;2023-04-24T17:46:56;1.33;;;0.70;;
64710;SDS011;51139;45.626;6.850;2023-04-24T17:49:22;1.50;;;0.80;;
64710;SDS011;51139;45.626;6.850;2023-04-24T17:51:47;1.88;;;0.90;;
64710;SDS011;51139;45.626;6.850;2023-04-24T17:54:12;1.52;;;0.90;;
64710;SDS011;51139;45.626;6.850;2023-04-24T17:56:38;2.17;;;0.57;;
64710;SDS011;51139;45.626;6.850;2023-04-24T17:59:03;2.45;;;0.75;;
64710;SDS011;51139;45.626;6.850;2023-04-24T18:01:29;1.92;;;0.73;;
64710;SDS011;51139;45.626;6.850;2023-04-24T18:03:54;1.45;;;0.77;;
64710;SDS011;51139;45.626;6.850;2023-04-24T18:06:20;0.90;;;0.70;;
64710;SDS011;51139;45.626;6.850;2023-04-24T18:08:45;3.85;;;0.80;;
64710;SDS011;51139;45.626;6.850;2023-04-24T18:11:11;2.05;;;0.88;;
64710;SDS011;51139;45.626;6.850;2023-04-24T18:13:37;2.15;;;0.75;;
64710;SDS011;51139;45.626;6.850;2023-04-24T18:16:05;1.52;;;0.85;;
64710;SDS011;51139;45.626;6.850;2023-04-24T18:18:30;3.55;;;0.85;;
64710;SDS011;51139;45.626;6.850;2023-04-24T18:20:56;1.05;;;0.80;;
64710;SDS011;51139;45.626;6.850;2023-04-24T18:23:21;2.97;;;0.75;;
64710;SDS011;51139;45.626;6.850;2023-04-24T18:25:47;1.75;;;0.82;;
64710;SDS011;51139;45.626;6.850;2023-04-24T18:28:12;3.05;;;1.88;;
64710;SDS011;51139;45.626;6.850;2023-04-24T18:30:38;1.55;;;0.90;;
64710;SDS011;51139;45.626;6.850;2023-04-24T18:33:03;1.45;;;0.80;;
64710;SDS011;51139;45.626;6.850;2023-04-24T18:35:29;4.60;;;2.10;;
64710;SDS011;51139;45.626;6.850;2023-04-24T18:37:55;1.70;;;0.90;;
64710;SDS011;51139;45.626;6.850;2023-04-24T18:40:20;1.75;;;1.20;;
64710;SDS011;51139;45.626;6.850;2023-04-24T18:42:46;2.53;;;1.10;;
64710;SDS011;51139;45.626;6.850;2023-04-24T18:45:11;1.15;;;0.80;;
64710;SDS011;51139;45.626;6.850;2023-04-24T18:47:37;3.58;;;1.20;;
64710;SDS011;51139;45.626;6.850;2023-04-24T18:50:03;1.60;;;1.00;;
64710;SDS011;51139;45.626;6.850;2023-04-24T18:52:29;2.30;;;1.30;;